Time;durP1;ratioP1;P1;durP2;ratioP2;P2;SDS_P1;SDS_P2;PMS_P1;PMS_P2;Temp;Humidity;BMP_temperature;BMP_pressure;BME280_temperature;BME280_humidity;BME280_pressure;Samples;Min_cycle;Max_cycle;Signal;HPM_P1;HPM_P2
2023/04/05 00:01:08;;;;;;;17.67;7.20;;;;;;;1.87;94.42;102402.41;5049590;28;20116;-74
2023/04/05 00:03:34;;;;;;;16.08;7.00;;;;;;;1.84;92.41;102406.09;5049544;28;20021;-74
2023/04/05 00:06:01;;;;;;;13.15;6.05;;;;;;;1.82;93.53;102394.81;5049666;28;20033;-74
2023/04/05 00:08:27;;;;;;;15.23;6.68;;;;;;;1.80;93.31;102398.47;5049728;28;20120;-74
2023/04/05 00:10:53;;;;;;;14.57;7.28;;;;;;;1.71;93.89;102392.88;5049489;28;20108;-73
2023/04/05 00:13:19;;;;;;;14.48;5.53;;;;;;;1.71;93.42;102403.41;5049363;28;20144;-73
2023/04/05 00:15:44;;;;;;;12.00;6.28;;;;;;;1.67;93.43;102395.81;5049379;28;20029;-74
2023/04/05 00:18:20;;;;;;;18.58;9.70;;;;;;;1.52;94.12;102385.38;5049334;28;20052;-74
2023/04/05 00:20:48;;;;;;;10.52;5.75;;;;;;;1.56;94.10;102398.31;5049396;28;20112;-74
2023/04/05 00:23:15;;;;;;;11.32;5.35;;;;;;;1.50;95.51;102395.13;5049227;28;20454;-74
2023/04/05 00:25:41;;;;;;;12.75;6.65;;;;;;;1.43;95.20;102391.19;5049458;28;20365;-74
2023/04/05 00:28:06;;;;;;;11.45;5.70;;;;;;;1.41;95.68;102390.44;5049168;28;20031;-73
2023/04/05 00:30:32;;;;;;;15.02;6.70;;;;;;;1.39;96.99;102392.38;5049168;28;20116;-74
2023/04/05 00:32:57;;;;;;;11.43;6.07;;;;;;;1.38;99.36;102389.81;5048998;28;20029;-74
2023/04/05 00:35:26;;;;;;;11.82;5.50;;;;;;;1.29;100.00;102378.13;5049293;28;20124;-74
2023/04/05 00:37:51;;;;;;;15.63;7.30;;;;;;;1.33;99.62;102389.28;5049082;28;20025;-74
2023/04/05 00:40:17;;;;;;;13.88;6.88;;;;;;;1.17;99.31;102366.59;5048975;28;20032;-74
2023/04/05 00:42:42;;;;;;;17.05;7.00;;;;;;;1.21;99.29;102369.88;5049034;28;20062;-74
2023/04/05 00:45:08;;;;;;;14.93;6.63;;;;;;;1.24;97.25;102380.19;5049131;28;20055;-73
2023/04/05 00:47:33;;;;;;;13.77;6.78;;;;;;;1.20;96.74;102370.81;5047441;28;20044;-74
2023/04/05 00:49:59;;;;;;;13.60;6.15;;;;;;;1.26;97.85;102381.78;5048962;28;20047;-73
2023/04/05 00:52:26;;;;;;;12.77;6.47;;;;;;;1.28;98.65;102379.03;5048894;28;20035;-73
2023/04/05 00:54:52;;;;;;;18.23;7.75;;;;;;;1.23;99.14;102373.22;5048858;28;20079;-73
2023/04/05 00:57:18;;;;;;;16.50;7.05;;;;;;;1.20;99.51;102371.66;5049047;28;20048;-73
2023/04/05 00:59:45;;;;;;;15.00;6.82;;;;;;;1.16;100.00;102372.81;5048784;28;20095;-73
2023/04/05 01:02:32;;;;;;;15.35;6.18;;;;;;;1.17;100.00;102371.84;5048798;28;20029;-73
2023/04/05 01:05:02;;;;;;;14.52;6.22;;;;;;;1.16;100.00;102374.59;5048642;28;20124;-74
2023/04/05 01:07:35;;;;;;;12.27;6.60;;;;;;;1.16;100.00;102367.53;5050813;28;20472;-74
2023/04/05 01:10:04;;;;;;;17.45;9.15;;;;;;;1.14;100.00;102366.78;5052581;28;20620;-73
2023/04/05 01:12:32;;;;;;;14.13;7.05;;;;;;;1.12;100.00;102366.03;5052654;28;20032;-73
2023/04/05 01:14:58;;;;;;;12.27;5.90;;;;;;;0.98;100.00;102361.66;5051991;28;20036;-73
2023/04/05 01:17:35;;;;;;;17.77;8.25;;;;;;;1.00;100.00;102369.47;5052473;28;20047;-73
2023/04/05 01:20:09;;;;;;;17.95;7.53;;;;;;;0.93;100.00;102366.38;5052323;28;20075;-73
2023/04/05 01:22:43;;;;;;;13.65;6.72;;;;;;;0.91;100.00;102376.13;5052654;28;20048;-73
2023/04/05 01:25:38;;;;;;;16.38;8.20;;;;;;;0.87;100.00;102364.13;5052418;28;20032;-73
2023/04/05 01:28:27;;;;;;;19.48;8.60;;;;;;;0.83;100.00;102373.97;5052441;28;20035;-73
2023/04/05 01:31:30;;;;;;;15.23;6.65;;;;;;;0.78;100.00;102360.28;5051882;28;20035;-73
2023/04/05 01:34:07;;;;;;;17.77;6.47;;;;;;;0.69;100.00;102354.78;5052419;28;20044;-73
2023/04/05 01:36:42;;;;;;;12.68;6.72;;;;;;;0.72;100.00;102358.03;5052330;28;20017;-73
2023/04/05 01:39:13;;;;;;;13.43;6.90;;;;;;;0.65;100.00;102351.47;5052332;28;20067;-73
2023/04/05 01:41:39;;;;;;;12.43;5.53;;;;;;;0.68;100.00;102355.69;5051967;28;20125;-73
2023/04/05 01:44:04;;;;;;;12.15;6.53;;;;;;;0.60;100.00;102350.91;5052213;28;20029;-73
2023/04/05 01:46:30;;;;;;;13.02;6.88;;;;;;;0.59;100.00;102349.25;5051928;28;20869;-73
2023/04/05 01:48:55;;;;;;;14.63;6.22;;;;;;;0.57;100.00;102345.88;5052143;28;20028;-73
2023/04/05 01:51:21;;;;;;;16.10;7.90;;;;;;;0.52;100.00;102340.88;5051934;28;20116;-74
2023/04/05 01:53:46;;;;;;;17.58;7.70;;;;;;;0.53;100.00;102345.22;5052006;28;20480;-74
2023/04/05 01:56:11;;;;;;;13.90;6.80;;;;;;;0.49;100.00;102337.63;5051579;28;20064;-73
2023/04/05 01:58:37;;;;;;;13.57;6.80;;;;;;;0.50;100.00;102339.28;5051869;28;20029;-73
2023/04/05 02:01:03;;;;;;;14.55;6.40;;;;;;;0.39;100.00;102327.69;5051679;28;20520;-73
2023/04/05 02:03:28;;;;;;;16.58;6.97;;;;;;;0.48;100.00;102338.56;5051593;28;20078;-73
2023/04/05 02:05:53;;;;;;;15.45;6.50;;;;;;;0.47;100.00;102345.56;5051625;28;20032;-73
2023/04/05 02:08:19;;;;;;;12.50;6.32;;;;;;;0.44;100.00;102337.91;5051591;28;20020;-73
2023/04/05 02:10:44;;;;;;;14.65;7.07;;;;;;;0.40;100.00;102341.66;5051576;28;20033;-73
2023/04/05 02:13:10;;;;;;;15.25;8.50;;;;;;;0.37;100.00;102353.19;5051495;28;20130;-74
2023/04/05 02:15:36;;;;;;;15.95;7.45;;;;;;;0.30;100.00;102333.50;5051396;28;20025;-73
2023/04/05 02:18:02;;;;;;;15.52;6.00;;;;;;;0.30;100.00;102328.25;5051449;28;20086;-73
2023/04/05 02:20:28;;;;;;;15.55;7.82;;;;;;;0.29;100.00;102333.56;5051392;28;20307;-73
2023/04/05 02:22:54;;;;;;;13.90;7.28;;;;;;;0.15;100.00;102313.44;5051346;28;20380;-74
2023/04/05 02:25:19;;;;;;;13.73;5.93;;;;;;;0.28;100.00;102324.88;5051205;28;20108;-74
2023/04/05 02:27:45;;;;;;;15.55;7.88;;;;;;;0.24;100.00;102326.00;5051409;28;20662;-73
2023/04/05 02:30:12;;;;;;;14.07;6.57;;;;;;;0.21;100.00;102329.66;5051163;28;20047;-73
2023/04/05 02:32:38;;;;;;;13.63;6.20;;;;;;;0.14;100.00;102320.47;5051241;28;20658;-74
2023/04/05 02:35:04;;;;;;;20.13;8.18;;;;;;;0.12;100.00;102330.19;5050089;28;20041;-74
2023/04/05 02:37:30;;;;;;;17.70;7.63;;;;;;;0.05;100.00;102318.38;5049814;28;20436;-73
2023/04/05 02:39:55;;;;;;;16.38;6.47;;;;;;;0.05;100.00;102322.78;5050964;28;20032;-74
2023/04/05 02:42:21;;;;;;;13.52;6.00;;;;;;;0.01;100.00;102314.25;5051010;28;20017;-74
2023/04/05 02:44:46;;;;;;;14.65;7.00;;;;;;;-0.03;100.00;102324.09;5051043;28;20488;-73
2023/04/05 02:47:11;;;;;;;13.10;6.80;;;;;;;-0.07;100.00;102325.22;5050798;28;20388;-74
2023/04/05 02:49:36;;;;;;;13.23;6.32;;;;;;;-0.07;100.00;102321.75;5049632;28;20390;-73
2023/04/05 02:52:02;;;;;;;14.27;6.57;;;;;;;-0.10;100.00;102325.41;5050793;28;20461;-74
2023/04/05 02:54:27;;;;;;;13.57;7.43;;;;;;;-0.12;100.00;102327.25;5050603;28;20029;-73
2023/04/05 02:56:53;;;;;;;13.55;7.55;;;;;;;-0.14;100.00;102313.38;5050505;28;20130;-74
2023/04/05 02:59:19;;;;;;;16.33;7.38;;;;;;;-0.16;100.00;102306.53;5050903;28;20033;-74
2023/04/05 03:01:45;;;;;;;14.32;7.93;;;;;;;-0.22;100.00;102308.59;5049126;28;20029;-73
2023/04/05 03:04:11;;;;;;;16.80;7.57;;;;;;;-0.25;100.00;102307.94;5050734;28;20468;-74
2023/04/05 03:06:37;;;;;;;15.35;8.13;;;;;;;-0.27;100.00;102307.19;5050427;28;20036;-74
2023/04/05 03:09:03;;;;;;;15.13;7.15;;;;;;;-0.29;100.00;102309.03;5050389;28;20035;-74
2023/04/05 03:11:30;;;;;;;14.10;7.20;;;;;;;-0.30;100.00;102315.22;5050361;28;20036;-74
2023/04/05 03:13:55;;;;;;;16.55;7.35;;;;;;;-0.38;100.00;102291.25;5050768;28;20041;-74
2023/04/05 03:16:21;;;;;;;17.15;7.63;;;;;;;-0.33;100.00;102297.06;5050301;28;20415;-74
2023/04/05 03:18:48;;;;;;;14.00;6.63;;;;;;;-0.34;100.00;102293.59;5050340;28;20435;-74
2023/04/05 03:21:16;;;;;;;16.65;6.93;;;;;;;-0.34;100.00;102292.75;5050367;28;20063;-74
2023/04/05 03:23:42;;;;;;;17.48;7.75;;;;;;;-0.38;100.00;102289.47;5050063;28;20812;-74
2023/04/05 03:26:07;;;;;;;13.20;7.05;;;;;;;-0.36;100.00;102286.78;5050172;28;20047;-74
2023/04/05 03:28:32;;;;;;;17.48;7.88;;;;;;;-0.35;100.00;102291.91;5050048;28;20033;-74
2023/04/05 03:30:58;;;;;;;16.48;7.20;;;;;;;-0.38;100.00;102291.25;5049595;28;20029;-74
2023/04/05 03:33:23;;;;;;;16.08;7.75;;;;;;;-0.40;100.00;102293.94;5049994;28;20111;-74
2023/04/05 03:35:49;;;;;;;17.15;6.93;;;;;;;-0.43;100.00;102291.50;5050045;28;20032;-74
2023/04/05 03:38:15;;;;;;;18.52;8.60;;;;;;;-0.47;100.00;102288.25;5049933;28;20434;-74
2023/04/05 03:40:40;;;;;;;15.88;7.35;;;;;;;-0.53;100.00;102292.97;5049846;28;20060;-74
2023/04/05 03:43:05;;;;;;;16.67;6.47;;;;;;;-0.53;100.00;102287.72;5049789;28;20025;-74
2023/04/05 03:45:32;;;;;;;15.57;7.93;;;;;;;-0.54;100.00;102286.91;5049796;28;20079;-74
2023/04/05 03:47:57;;;;;;;17.27;7.05;;;;;;;-0.66;100.00;102277.13;5049801;28;20029;-74
2023/04/05 03:50:25;;;;;;;14.75;7.18;;;;;;;-0.62;100.00;102289.13;5049548;28;20434;-73
2023/04/05 03:52:51;;;;;;;18.10;9.50;;;;;;;-0.65;100.00;102289.31;5049630;28;20102;-74
2023/04/05 03:55:16;;;;;;;19.95;8.98;;;;;;;-0.71;100.00;102287.00;5049504;28;20115;-74
2023/04/05 03:57:42;;;;;;;20.13;8.50;;;;;;;-0.80;100.00;102274.47;5049614;28;20551;-74
2023/04/05 04:00:17;;;;;;;16.48;7.32;;;;;;;-0.75;100.00;102278.50;5049481;28;20032;-74
2023/04/05 04:02:45;;;;;;;14.05;7.07;;;;;;;-0.85;100.00;102263.41;5049100;28;20029;-73
2023/04/05 04:05:11;;;;;;;14.45;8.27;;;;;;;-0.80;100.00;102271.84;5049563;28;20545;-73
2023/04/05 04:07:36;;;;;;;15.95;7.22;;;;;;;-0.80;100.00;102274.47;5049299;28;20060;-73
2023/04/05 04:10:04;;;;;;;18.95;8.15;;;;;;;-0.83;100.00;102275.47;5049485;28;20031;-74
2023/04/05 04:12:29;;;;;;;15.93;8.93;;;;;;;-0.85;100.00;102272.09;5049120;28;20025;-74
2023/04/05 04:14:54;;;;;;;16.52;9.10;;;;;;;-0.81;100.00;102278.00;5049433;28;20024;-74
2023/04/05 04:17:31;;;;;;;20.75;8.35;;;;;;;-0.83;100.00;102267.63;5049219;28;20087;-73
2023/04/05 04:19:57;;;;;;;15.48;7.75;;;;;;;-0.84;100.00;102276.38;5049328;28;20029;-74
2023/04/05 04:22:25;;;;;;;13.77;7.25;;;;;;;-0.87;100.00;102279.19;5049389;28;20087;-74
2023/04/05 04:24:54;;;;;;;14.52;6.38;;;;;;;-0.92;100.00;102268.13;5047503;28;20037;-73
2023/04/05 04:27:19;;;;;;;15.65;7.20;;;;;;;-0.93;100.00;102277.75;5049007;28;20432;-74
2023/04/05 04:29:46;;;;;;;15.45;7.78;;;;;;;-0.95;100.00;102277.00;5048087;28;20131;-73
2023/04/05 04:32:14;;;;;;;13.38;6.20;;;;;;;-0.96;100.00;102274.50;5049089;28;20482;-73
2023/04/05 04:34:46;;;;;;;20.70;9.98;;;;;;;-0.95;100.00;102263.91;5048956;28;20029;-73
2023/04/05 04:37:17;;;;;;;16.60;8.05;;;;;;;-0.95;100.00;102271.75;5049154;28;20079;-74
2023/04/05 04:39:47;;;;;;;15.83;7.63;;;;;;;-0.96;100.00;102272.72;5049144;28;20056;-73
2023/04/05 04:42:13;;;;;;;17.50;8.07;;;;;;;-0.97;100.00;102284.13;5050581;28;20639;-73
2023/04/05 04:44:41;;;;;;;16.25;6.85;;;;;;;-1.02;100.00;102270.44;5053246;28;20419;-73
2023/04/05 04:47:12;;;;;;;22.08;9.02;;;;;;;-1.03;100.00;102271.34;5052703;28;20089;-74
2023/04/05 04:49:39;;;;;;;16.90;8.38;;;;;;;-0.99;100.00;102278.13;5053063;28;20033;-74
2023/04/05 04:52:05;;;;;;;17.13;8.65;;;;;;;-0.99;100.00;102277.28;5051704;28;20037;-71
2023/04/05 04:54:32;;;;;;;18.60;8.35;;;;;;;-1.01;100.00;102266.03;5051563;28;20473;-74
2023/04/05 04:56:58;;;;;;;19.60;8.00;;;;;;;-0.97;100.00;102276.25;5052082;28;20099;-75
2023/04/05 04:59:24;;;;;;;21.38;9.27;;;;;;;-0.95;100.00;102278.78;5050822;28;20691;-75
2023/04/05 05:01:49;;;;;;;16.25;8.05;;;;;;;-0.99;100.00;102262.41;5052560;28;20033;-74
2023/04/05 05:04:15;;;;;;;18.90;7.30;;;;;;;-0.98;100.00;102265.88;5034725;28;20028;-74
2023/04/05 05:06:40;;;;;;;17.30;8.45;;;;;;;-0.94;100.00;102265.63;5052439;28;20033;-75
2023/04/05 05:09:05;;;;;;;16.50;9.32;;;;;;;-0.93;100.00;102269.91;5052676;28;20098;-74
2023/04/05 05:11:31;;;;;;;20.27;9.27;;;;;;;-0.92;100.00;102263.75;5052845;28;20435;-75
2023/04/05 05:13:56;;;;;;;17.00;8.10;;;;;;;-0.90;100.00;102266.28;5052494;28;20037;-75
2023/04/05 05:16:22;;;;;;;17.65;7.82;;;;;;;-0.90;100.00;102272.34;5052652;28;20037;-75
2023/04/05 05:18:49;;;;;;;16.38;8.60;;;;;;;-1.03;100.00;102249.56;5052460;28;20040;-75
2023/04/05 05:21:15;;;;;;;17.08;8.05;;;;;;;-0.88;100.00;102270.50;5052383;28;20036;-75
2023/04/05 05:23:40;;;;;;;16.10;8.13;;;;;;;-0.84;100.00;102275.56;5052289;28;20033;-75
2023/04/05 05:26:06;;;;;;;18.25;7.53;;;;;;;-0.82;100.00;102271.91;5052428;28;20086;-75
2023/04/05 05:28:31;;;;;;;18.25;10.80;;;;;;;-0.79;100.00;102273.50;5051522;28;20029;-75
2023/04/05 05:30:57;;;;;;;17.85;9.07;;;;;;;-0.83;100.00;102253.69;5052166;28;20025;-75
2023/04/05 05:33:22;;;;;;;19.05;8.52;;;;;;;-0.71;100.00;102268.69;5052362;28;20502;-75
2023/04/05 05:35:48;;;;;;;16.00;8.25;;;;;;;-0.68;100.00;102266.75;5052453;28;20438;-75
2023/04/05 05:38:14;;;;;;;21.17;10.75;;;;;;;-0.65;100.00;102265.72;5050996;28;20082;-75
2023/04/05 05:40:39;;;;;;;18.98;8.43;;;;;;;-0.73;100.00;102247.00;5052056;28;20131;-75
2023/04/05 05:43:05;;;;;;;20.08;9.35;;;;;;;-0.64;100.00;102256.09;5052421;28;20106;-77
2023/04/05 05:45:31;;;;;;;16.48;7.78;;;;;;;-0.62;100.00;102254.22;5051999;28;20487;-74
2023/04/05 05:47:57;;;;;;;31.27;11.10;;;;;;;-0.57;100.00;102258.25;5050951;28;20456;-75
2023/04/05 05:50:22;;;;;;;15.23;7.63;;;;;;;-0.48;100.00;102262.94;5051656;28;20037;-74
2023/04/05 05:52:47;;;;;;;17.83;8.25;;;;;;;-0.42;100.00;102253.88;5051399;28;20025;-75
2023/04/05 05:55:13;;;;;;;24.27;9.90;;;;;;;-0.36;100.00;102255.31;5051766;28;20041;-75
2023/04/05 05:57:38;;;;;;;17.45;7.82;;;;;;;-0.29;100.00;102251.38;5052010;28;20682;-75
2023/04/05 06:00:08;;;;;;;18.25;8.00;;;;;;;-0.19;100.00;102265.63;5051813;28;20384;-75
2023/04/05 06:02:34;;;;;;;16.77;8.02;;;;;;;-0.13;100.00;102259.16;5052103;28;20017;-75
2023/04/05 06:05:00;;;;;;;18.75;7.72;;;;;;;-0.11;100.00;102254.69;5051625;28;20400;-74
2023/04/05 06:07:26;;;;;;;17.30;7.80;;;;;;;-0.01;100.00;102264.50;5050054;28;20115;-74
2023/04/05 06:09:52;;;;;;;24.00;8.93;;;;;;;0.03;100.00;102253.84;5049443;28;20691;-74
2023/04/05 06:12:19;;;;;;;17.75;8.73;;;;;;;0.23;100.00;102266.56;5050783;28;20037;-74
2023/04/05 06:14:45;;;;;;;14.35;8.02;;;;;;;0.35;100.00;102271.09;5049093;28;20098;-74
2023/04/05 06:17:10;;;;;;;17.10;8.63;;;;;;;0.49;100.00;102270.22;5049317;28;20033;-74
2023/04/05 06:19:35;;;;;;;22.77;10.88;;;;;;;0.73;100.00;102266.97;5050739;28;20029;-74
2023/04/05 06:22:01;;;;;;;20.55;10.63;;;;;;;0.93;100.00;102268.34;5050876;28;20021;-74
2023/04/05 06:24:30;;;;;;;18.02;10.07;;;;;;;1.20;100.00;102277.03;5051559;28;20163;-74
2023/04/05 06:26:55;;;;;;;18.50;9.60;;;;;;;1.70;100.00;102258.84;5051665;28;20025;-74
2023/04/05 06:29:21;;;;;;;19.58;9.75;;;;;;;2.37;97.75;102277.88;5051335;28;20361;-74
2023/04/05 06:31:47;;;;;;;20.70;10.05;;;;;;;2.72;96.52;102273.69;5051244;28;20033;-75
2023/04/05 06:34:12;;;;;;;21.08;10.93;;;;;;;2.67;93.75;102265.28;5051320;28;20043;-74
2023/04/05 06:36:37;;;;;;;17.85;9.30;;;;;;;2.54;92.83;102279.34;5049696;28;20035;-74
2023/04/05 06:39:03;;;;;;;19.73;10.48;;;;;;;2.45;91.66;102274.72;5050769;28;20043;-74
2023/04/05 06:41:28;;;;;;;20.45;9.93;;;;;;;2.45;93.16;102277.34;5050120;28;20541;-74
2023/04/05 06:43:55;;;;;;;20.73;9.90;;;;;;;2.55;93.19;102281.00;5051168;28;20025;-75
2023/04/05 06:46:20;;;;;;;16.88;10.60;;;;;;;2.57;92.93;102271.22;5050820;28;20086;-74
2023/04/05 06:48:47;;;;;;;17.35;8.30;;;;;;;2.60;93.41;102268.38;5050368;28;20033;-74
2023/04/05 06:51:12;;;;;;;22.50;10.25;;;;;;;2.61;93.27;102270.03;5050663;28;20036;-75
2023/04/05 06:53:38;;;;;;;22.20;9.60;;;;;;;2.62;91.44;102274.38;5050954;28;20029;-74
2023/04/05 06:56:04;;;;;;;16.88;9.65;;;;;;;2.66;90.25;102272.34;5050945;28;20053;-74
2023/04/05 06:58:29;;;;;;;19.08;9.35;;;;;;;2.68;90.42;102259.09;5049680;28;20072;-74
2023/04/05 07:00:55;;;;;;;20.48;10.15;;;;;;;2.81;90.80;102270.41;5050959;28;20115;-75
2023/04/05 07:03:21;;;;;;;21.95;11.07;;;;;;;2.84;87.55;102276.28;5050509;28;20064;-75
2023/04/05 07:05:51;;;;;;;19.35;9.88;;;;;;;2.80;86.77;102273.97;5049779;28;20032;-74
2023/04/05 07:08:21;;;;;;;22.73;10.57;;;;;;;2.84;86.73;102288.63;5050680;28;20055;-75
2023/04/05 07:10:48;;;;;;;21.45;10.50;;;;;;;2.84;86.26;102284.19;5049237;28;20044;-75
2023/04/05 07:13:15;;;;;;;17.85;9.95;;;;;;;2.91;86.57;102275.84;5050654;28;20304;-75
2023/04/05 07:15:41;;;;;;;19.77;10.10;;;;;;;2.97;86.62;102288.59;5050706;28;20167;-74
2023/04/05 07:18:07;;;;;;;19.30;10.02;;;;;;;2.97;85.08;102272.78;5050384;28;20116;-75
2023/04/05 07:20:32;;;;;;;19.80;10.00;;;;;;;3.01;86.64;102277.72;5049055;28;20033;-75
2023/04/05 07:22:57;;;;;;;16.58;8.85;;;;;;;3.13;87.45;102278.59;5046433;28;20032;-74
2023/04/05 07:25:23;;;;;;;19.13;9.68;;;;;;;3.22;85.86;102272.66;5034018;28;20058;-74
2023/04/05 07:27:48;;;;;;;17.60;8.93;;;;;;;3.35;86.31;102274.38;5042182;28;20059;-75
2023/04/05 07:30:14;;;;;;;17.35;9.43;;;;;;;3.46;86.93;102280.53;5050183;28;20075;-76
2023/04/05 07:32:40;;;;;;;18.30;9.30;;;;;;;3.58;86.94;102275.28;5050056;28;20041;-75
2023/04/05 07:35:06;;;;;;;17.23;9.88;;;;;;;3.65;85.03;102263.31;5050058;28;20118;-76
2023/04/05 07:37:31;;;;;;;18.98;10.85;;;;;;;3.77;85.13;102275.56;5050023;28;20030;-75
2023/04/05 07:39:57;;;;;;;19.15;9.98;;;;;;;3.83;84.02;102269.84;5049683;28;20029;-76
2023/04/05 07:42:23;;;;;;;18.20;10.10;;;;;;;4.02;84.48;102269.25;5049876;28;20032;-75
2023/04/05 07:44:48;;;;;;;18.05;10.52;;;;;;;4.21;81.95;102265.19;5049717;28;20396;-76
2023/04/05 07:47:13;;;;;;;17.15;9.30;;;;;;;4.38;81.56;102272.63;5049876;28;20950;-75
2023/04/05 07:49:39;;;;;;;17.35;9.43;;;;;;;4.75;81.31;102280.28;5049686;28;20040;-76
2023/04/05 07:52:05;;;;;;;17.95;10.70;;;;;;;4.95;81.62;102276.00;5049743;28;20451;-76
2023/04/05 07:54:32;;;;;;;20.45;10.25;;;;;;;4.98;80.63;102276.59;5048554;28;20045;-76
2023/04/05 07:56:58;;;;;;;18.25;10.07;;;;;;;4.97;81.88;102272.25;5049657;28;20057;-76
2023/04/05 07:59:23;;;;;;;21.52;10.13;;;;;;;4.96;80.99;102267.13;5049723;28;20047;-76
2023/04/05 08:01:49;;;;;;;19.02;10.30;;;;;;;5.25;82.07;102272.66;5048343;28;20369;-76
2023/04/05 08:04:14;;;;;;;20.35;10.93;;;;;;;5.52;80.81;102276.63;5049782;28;20052;-76
2023/04/05 08:06:40;;;;;;;20.70;9.73;;;;;;;5.56;78.02;102273.59;5048263;28;20029;-76
2023/04/05 08:09:07;;;;;;;16.15;7.88;;;;;;;5.66;75.92;102266.56;5048915;28;20083;-75
2023/04/05 08:11:33;;;;;;;14.43;8.18;;;;;;;5.79;75.03;102265.50;5049479;28;20078;-75
2023/04/05 08:13:58;;;;;;;16.58;7.60;;;;;;;6.11;71.13;102263.63;5049715;28;20436;-73
2023/04/05 08:16:24;;;;;;;13.60;7.50;;;;;;;6.94;67.99;102266.97;5049246;28;20135;-73
2023/04/05 08:18:49;;;;;;;14.77;7.22;;;;;;;8.47;65.34;102264.31;5049221;28;20033;-73
2023/04/05 08:21:15;;;;;;;16.60;7.45;;;;;;;10.13;59.16;102261.91;5049461;28;20035;-73
2023/04/05 08:23:40;;;;;;;15.30;8.20;;;;;;;11.42;54.99;102258.91;5049345;28;20029;-73
2023/04/05 08:26:06;;;;;;;14.63;7.45;;;;;;;12.44;49.15;102265.41;5049364;28;20450;-74
2023/04/05 08:28:32;;;;;;;14.30;7.47;;;;;;;13.43;48.82;102262.91;5049414;28;20031;-74
2023/04/05 08:30:57;;;;;;;13.10;6.28;;;;;;;13.82;45.46;102267.25;5049301;28;20108;-74
2023/04/05 08:33:25;;;;;;;18.55;8.18;;;;;;;13.86;44.53;102268.56;5049253;28;20353;-74
2023/04/05 08:35:50;;;;;;;15.05;7.28;;;;;;;13.62;44.63;102253.53;5049587;28;20107;-74
2023/04/05 08:38:16;;;;;;;10.63;5.95;;;;;;;13.23;45.64;102267.94;5049216;28;20115;-72
2023/04/05 08:40:43;;;;;;;15.18;7.55;;;;;;;12.22;48.15;102263.47;5049151;28;20361;-72
2023/04/05 08:43:21;;;;;;;12.18;6.40;;;;;;;11.04;49.07;102269.22;5049118;28;20110;-72
2023/04/05 08:45:50;;;;;;;13.80;6.85;;;;;;;9.89;50.98;102265.25;5048843;28;20037;-73
2023/04/05 08:48:16;;;;;;;13.38;7.13;;;;;;;9.29;50.87;102267.81;5049115;28;20188;-73
2023/04/05 08:50:48;;;;;;;14.77;7.82;;;;;;;8.80;54.48;102256.69;5048869;28;20061;-73
2023/04/05 08:53:13;;;;;;;18.35;7.72;;;;;;;8.29;53.84;102259.75;5048077;28;20044;-70
2023/04/05 08:55:39;;;;;;;12.55;7.32;;;;;;;7.95;55.27;102262.09;5048480;28;20056;-71
2023/04/05 08:58:11;;;;;;;10.25;6.45;;;;;;;7.68;56.80;102252.25;5048836;28;20131;-71
2023/04/05 09:00:37;;;;;;;16.08;7.22;;;;;;;7.68;56.00;102265.53;5048902;28;20456;-76
2023/04/05 09:03:04;;;;;;;12.80;7.05;;;;;;;7.54;54.25;102252.69;5048949;28;20381;-69
2023/04/05 09:05:31;;;;;;;17.05;6.85;;;;;;;7.54;55.16;102256.16;5048881;28;20033;-67
2023/04/05 09:07:57;;;;;;;12.48;5.40;;;;;;;7.54;52.88;102256.16;5048809;28;20033;-70
2023/04/05 09:10:23;;;;;;;12.00;6.80;;;;;;;7.54;54.96;102250.88;5049024;28;20472;-72
2023/04/05 09:12:50;;;;;;;13.20;5.65;;;;;;;7.55;56.65;102257.03;5048899;28;20477;-70
2023/04/05 09:15:16;;;;;;;11.32;5.75;;;;;;;7.53;54.37;102257.16;5048768;28;20112;-71
2023/04/05 09:17:42;;;;;;;13.68;6.90;;;;;;;7.49;55.66;102242.50;5047908;28;20650;-69
2023/04/05 09:20:08;;;;;;;17.77;7.53;;;;;;;7.65;53.67;102252.53;5048818;28;20036;-70
2023/04/05 09:22:44;;;;;;;14.77;5.72;;;;;;;7.69;54.00;102251.25;5049002;28;20029;-68
2023/04/05 09:25:10;;;;;;;14.18;6.68;;;;;;;7.69;53.56;102249.44;5047524;28;20480;-68
2023/04/05 09:27:54;;;;;;;13.75;6.85;;;;;;;7.81;54.76;102239.50;5049494;28;20040;-67
2023/04/05 09:30:23;;;;;;;13.32;7.10;;;;;;;8.04;54.03;102247.09;5052230;28;20107;-68
2023/04/05 09:32:53;;;;;;;12.45;6.22;;;;;;;8.12;50.42;102248.06;5052615;28;20145;-68
2023/04/05 09:35:21;;;;;;;12.80;6.43;;;;;;;8.13;50.63;102244.41;5052419;28;20032;-68
2023/04/05 09:37:54;;;;;;;15.35;7.18;;;;;;;8.22;50.71;102240.03;5052477;28;20074;-67
2023/04/05 09:40:20;;;;;;;14.02;6.35;;;;;;;8.34;49.61;102244.19;5052283;28;20365;-68
2023/04/05 09:42:46;;;;;;;9.93;5.20;;;;;;;8.33;51.33;102241.66;5052149;28;20025;-68
2023/04/05 09:45:11;;;;;;;15.05;7.25;;;;;;;8.37;53.17;102240.41;5052416;28;20044;-68
2023/04/05 09:47:37;;;;;;;14.75;7.60;;;;;;;8.32;47.69;102242.66;5052681;28;20036;-68
2023/04/05 09:50:22;;;;;;;17.65;7.65;;;;;;;8.39;51.43;102229.63;5050566;28;20040;-68
2023/04/05 09:52:48;;;;;;;13.20;6.57;;;;;;;8.28;46.90;102230.66;5051850;28;20415;-68
2023/04/05 09:55:25;;;;;;;14.77;7.85;;;;;;;8.34;50.60;102232.72;5052299;28;20079;-68
2023/04/05 09:57:51;;;;;;;12.90;7.13;;;;;;;8.35;48.07;102237.88;5051960;28;20044;-68
2023/04/05 10:00:18;;;;;;;15.88;8.43;;;;;;;8.32;47.81;102230.19;5051728;28;20037;-68
2023/04/05 10:02:46;;;;;;;11.93;6.15;;;;;;;8.39;50.63;102226.97;5052015;28;20492;-68
2023/04/05 10:05:12;;;;;;;14.13;7.68;;;;;;;8.56;50.40;102228.84;5052161;28;20395;-68
2023/04/05 10:07:39;;;;;;;13.63;6.55;;;;;;;8.73;49.08;102232.53;5051729;28;20043;-68
2023/04/05 10:10:05;;;;;;;14.45;7.90;;;;;;;8.77;48.50;102231.22;5051513;28;20056;-68
2023/04/05 10:12:32;;;;;;;12.90;6.90;;;;;;;8.66;48.01;102221.63;5051841;28;20480;-68
2023/04/05 10:14:58;;;;;;;14.77;7.18;;;;;;;8.72;50.58;102218.41;5051629;28;20032;-68
2023/04/05 10:17:28;;;;;;;15.88;6.95;;;;;;;8.80;47.93;102217.63;5051948;28;20029;-68
2023/04/05 10:20:13;;;;;;;13.43;7.03;;;;;;;8.99;53.67;102203.34;5051609;28;20035;-68
2023/04/05 10:22:41;;;;;;;14.70;7.35;;;;;;;9.13;49.77;102208.13;5052028;28;20032;-68
2023/04/05 10:25:35;;;;;;;14.15;6.53;;;;;;;9.26;50.79;102197.06;5051458;28;20211;-68
2023/04/05 10:28:09;;;;;;;14.70;8.07;;;;;;;9.45;53.81;102206.69;5051487;28;20025;-68
2023/04/05 10:30:39;;;;;;;14.45;7.43;;;;;;;9.65;51.44;102197.50;5051300;28;20036;-68
2023/04/05 10:33:28;;;;;;;15.70;7.88;;;;;;;9.70;50.35;102202.38;5051734;28;20029;-68
2023/04/05 10:36:00;;;;;;;13.13;7.05;;;;;;;9.62;46.90;102197.81;5050811;28;20043;-68
2023/04/05 10:38:27;;;;;;;11.88;6.90;;;;;;;9.64;51.35;102195.84;5051228;28;20028;-68
2023/04/05 10:40:59;;;;;;;15.85;7.72;;;;;;;9.75;51.81;102193.91;5050381;28;20028;-68
2023/04/05 10:43:25;;;;;;;12.95;7.28;;;;;;;9.90;52.83;102189.63;5051309;28;20040;-68
2023/04/05 10:45:52;;;;;;;12.77;7.28;;;;;;;10.04;49.91;102191.72;5051209;28;20025;-69
2023/04/05 10:48:41;;;;;;;14.02;6.78;;;;;;;10.09;50.80;102183.25;5051197;28;21024;-68
2023/04/05 10:51:06;;;;;;;13.65;6.53;;;;;;;9.92;45.72;102189.50;5050966;28;20025;-68
2023/04/05 10:53:32;;;;;;;15.45;8.45;;;;;;;9.72;48.47;102180.88;5050959;28;20047;-68
2023/04/05 10:56:00;;;;;;;17.05;7.47;;;;;;;9.68;48.14;102184.88;5050623;28;20055;-68
2023/04/05 10:58:26;;;;;;;14.27;8.00;;;;;;;9.53;46.99;102177.44;5049504;28;20068;-68
2023/04/05 11:00:53;;;;;;;15.93;6.90;;;;;;;9.56;48.13;102174.50;5049597;28;20049;-68
2023/04/05 11:03:47;;;;;;;13.32;6.15;;;;;;;9.58;46.84;102179.66;5050927;28;20465;-69
2023/04/05 11:06:23;;;;;;;12.52;6.85;;;;;;;9.50;47.34;102174.28;5050761;28;20053;-68
2023/04/05 11:09:12;;;;;;;12.80;6.93;;;;;;;9.40;47.75;102167.22;5050608;28;20927;-68
2023/04/05 11:11:42;;;;;;;15.98;7.65;;;;;;;9.32;46.99;102169.00;5050475;28;20036;-68
2023/04/05 11:14:22;;;;;;;14.70;7.82;;;;;;;9.42;49.85;102167.06;5050963;28;20036;-68
2023/04/05 11:16:52;;;;;;;12.90;5.90;;;;;;;9.41;47.23;102162.75;5050293;28;20044;-68
2023/04/05 11:19:18;;;;;;;13.98;6.78;;;;;;;9.59;49.19;102160.84;5050433;28;20112;-70